Time;durP1;ratioP1;P1;durP2;ratioP2;P2;SDS_P1;SDS_P2;PMS_P1;PMS_P2;Temp;Humidity;BMP_temperature;BMP_pressure;BME280_temperature;BME280_humidity;BME280_pressure;Samples;Min_cycle;Max_cycle;Signal;HPM_P1;HPM_P2
2022/11/30 00:00:54;;;;;;;59.40;24.73;;;8.70;99.90;;;;;;5034149;28;20025;-76
2022/11/30 00:03:19;;;;;;;62.38;24.30;;;8.70;99.90;;;;;;5033779;28;20501;-76
2022/11/30 00:05:45;;;;;;;66.35;27.95;;;8.70;99.90;;;;;;5033572;28;20030;-76
2022/11/30 00:08:11;;;;;;;63.88;24.70;;;8.70;99.90;;;;;;5033368;28;20040;-76
2022/11/30 00:10:38;;;;;;;67.95;25.33;;;8.60;99.90;;;;;;5033450;28;20038;-76
2022/11/30 00:13:05;;;;;;;64.03;26.10;;;8.60;99.90;;;;;;5034274;28;20028;-75
2022/11/30 00:15:31;;;;;;;57.45;23.30;;;8.70;99.90;;;;;;5033680;28;20034;-75
2022/11/30 00:17:57;;;;;;;63.00;23.33;;;8.70;99.90;;;;;;5032184;28;20472;-75
2022/11/30 00:20:23;;;;;;;66.15;25.27;;;8.80;99.90;;;;;;5033321;28;20037;-74
2022/11/30 00:22:49;;;;;;;58.30;23.70;;;8.80;99.90;;;;;;5033289;28;20040;-75
2022/11/30 00:25:14;;;;;;;60.13;24.08;;;8.80;99.90;;;;;;5033216;28;20025;-75
2022/11/30 00:27:40;;;;;;;56.53;21.98;;;8.80;99.90;;;;;;5033695;28;20447;-75
2022/11/30 00:30:06;;;;;;;53.10;21.85;;;8.80;99.90;;;;;;5033087;28;20506;-75
2022/11/30 00:32:32;;;;;;;53.85;22.48;;;8.80;99.90;;;;;;5032117;28;20060;-76
2022/11/30 00:34:58;;;;;;;54.25;21.20;;;8.80;99.90;;;;;;5033330;28;20375;-76
2022/11/30 00:37:24;;;;;;;53.88;21.90;;;8.80;99.90;;;;;;5032870;28;20111;-75
2022/11/30 00:39:49;;;;;;;48.65;21.73;;;8.80;99.90;;;;;;5033331;28;20321;-75
2022/11/30 00:42:15;;;;;;;50.83;21.92;;;8.80;99.90;;;;;;5032003;28;20386;-75
2022/11/30 00:44:41;;;;;;;52.30;21.88;;;8.80;99.90;;;;;;5031767;28;20045;-76
2022/11/30 00:47:07;;;;;;;53.38;21.17;;;8.80;99.90;;;;;;5031835;28;20083;-76
2022/11/30 00:49:35;;;;;;;51.97;20.60;;;8.70;99.90;;;;;;5031700;28;20348;-75
2022/11/30 00:52:01;;;;;;;49.38;20.05;;;8.70;99.90;;;;;;5033017;28;20029;-75
2022/11/30 00:54:27;;;;;;;46.10;19.60;;;8.70;99.90;;;;;;5032577;28;20029;-76
2022/11/30 00:56:53;;;;;;;48.30;19.48;;;8.70;99.90;;;;;;5032641;28;20491;-76
2022/11/30 00:59:18;;;;;;;54.13;21.63;;;8.60;99.90;;;;;;5032557;28;20102;-75
2022/11/30 01:01:45;;;;;;;55.53;20.98;;;8.70;99.90;;;;;;5031668;28;20521;-75
2022/11/30 01:04:10;;;;;;;56.25;21.50;;;8.70;99.90;;;;;;5033101;28;20022;-74
2022/11/30 01:06:37;;;;;;;49.80;19.60;;;8.60;99.90;;;;;;5032295;28;20171;-76
2022/11/30 01:09:03;;;;;;;49.63;21.00;;;8.70;99.90;;;;;;5032355;28;20064;-75
2022/11/30 01:11:30;;;;;;;52.28;19.42;;;8.60;99.90;;;;;;5030972;28;20085;-76
2022/11/30 01:13:58;;;;;;;49.55;19.67;;;8.70;99.90;;;;;;5032301;28;20029;-76
2022/11/30 01:16:26;;;;;;;47.13;18.35;;;8.60;99.90;;;;;;5031271;28;20021;-76
2022/11/30 01:18:53;;;;;;;45.50;18.17;;;8.60;99.90;;;;;;5032572;28;20049;-76
2022/11/30 01:21:21;;;;;;;48.05;19.50;;;8.60;99.90;;;;;;5032115;28;20487;-76
2022/11/30 01:23:48;;;;;;;46.20;18.67;;;8.60;99.90;;;;;;5032040;28;20044;-77
2022/11/30 01:26:14;;;;;;;43.60;19.48;;;8.60;99.90;;;;;;5031791;28;20021;-76
2022/11/30 01:28:40;;;;;;;46.88;18.50;;;8.60;99.90;;;;;;5030766;28;20030;-77
2022/11/30 01:31:08;;;;;;;42.80;18.73;;;8.60;99.90;;;;;;5032328;28;20018;-75
2022/11/30 01:33:34;;;;;;;45.20;18.50;;;8.50;99.90;;;;;;5031908;28;20048;-76
2022/11/30 01:36:14;;;;;;;41.00;17.52;;;8.50;99.90;;;;;;5031599;28;20099;-75
2022/11/30 01:38:45;;;;;;;42.17;17.25;;;8.50;99.90;;;;;;5030512;28;20040;-76
2022/11/30 01:41:13;;;;;;;42.50;17.80;;;8.50;99.90;;;;;;5030386;28;20374;-76
2022/11/30 01:43:41;;;;;;;39.72;17.23;;;8.60;99.90;;;;;;5031566;28;20060;-76
2022/11/30 01:46:29;;;;;;;41.15;17.67;;;8.60;99.90;;;;;;5030950;28;20029;-75
2022/11/30 01:49:08;;;;;;;40.35;16.00;;;8.60;99.90;;;;;;5031973;28;20041;-75
2022/11/30 01:52:05;;;;;;;41.17;17.17;;;8.60;99.90;;;;;;5030437;28;20025;-75
2022/11/30 01:54:37;;;;;;;42.15;17.65;;;8.60;99.90;;;;;;5029493;28;20387;-75
2022/11/30 01:57:10;;;;;;;45.47;17.02;;;8.60;99.90;;;;;;5030280;28;20090;-76
2022/11/30 01:59:36;;;;;;;42.78;17.77;;;8.60;99.90;;;;;;5029905;28;20116;-75
2022/11/30 02:02:02;;;;;;;41.60;18.38;;;8.60;99.90;;;;;;5031224;28;20041;-76
2022/11/30 02:04:31;;;;;;;38.60;15.88;;;8.50;99.90;;;;;;5031207;28;20170;-76
2022/11/30 02:06:57;;;;;;;42.70;17.10;;;8.50;99.90;;;;;;5031544;28;20022;-76
2022/11/30 02:09:26;;;;;;;37.67;15.80;;;8.60;99.90;;;;;;5029892;28;20026;-76
2022/11/30 02:11:52;;;;;;;38.35;17.33;;;8.60;99.90;;;;;;5030979;28;20140;-75
2022/11/30 02:14:36;;;;;;;43.00;17.90;;;8.50;99.90;;;;;;5030914;28;20033;-75
2022/11/30 02:17:23;;;;;;;44.30;16.90;;;8.50;99.90;;;;;;5030924;28;20111;-76
2022/11/30 02:20:17;;;;;;;33.88;15.38;;;8.40;99.90;;;;;;5030640;28;20030;-75
2022/11/30 02:22:52;;;;;;;40.78;16.50;;;8.40;99.90;;;;;;5030840;28;20033;-75
2022/11/30 02:25:40;;;;;;;42.28;16.58;;;8.50;99.90;;;;;;5030835;28;20095;-75
2022/11/30 02:28:30;;;;;;;39.38;16.20;;;8.50;99.90;;;;;;5020957;28;20451;-75
2022/11/30 02:30:58;;;;;;;41.58;16.17;;;8.50;99.90;;;;;;5030873;28;20462;-75
2022/11/30 02:33:28;;;;;;;39.00;17.30;;;8.50;99.90;;;;;;5030935;28;20435;-76
2022/11/30 02:35:56;;;;;;;40.25;15.77;;;8.60;99.90;;;;;;5020387;28;20061;-75
2022/11/30 02:38:24;;;;;;;39.33;15.35;;;8.50;99.90;;;;;;5011234;28;20164;-75
2022/11/30 02:40:50;;;;;;;36.72;16.50;;;8.40;99.90;;;;;;5009812;28;20030;-75
2022/11/30 02:43:18;;;;;;;40.25;17.25;;;8.50;99.90;;;;;;5010816;28;20052;-75
2022/11/30 02:46:03;;;;;;;;;;;8.50;99.90;;;;;;5011588;28;20510;-75
2022/11/30 02:48:50;;;;;;;33.75;14.05;;;8.50;99.90;;;;;;5010598;28;19919;-76
2022/11/30 02:51:23;;;;;;;34.65;14.98;;;8.50;99.90;;;;;;5010606;28;20029;-76
2022/11/30 02:53:49;;;;;;;32.50;14.82;;;8.50;99.90;;;;;;5010556;28;20396;-76
2022/11/30 02:56:17;;;;;;;35.58;15.13;;;8.40;99.90;;;;;;5010382;28;20049;-73
2022/11/30 02:58:43;;;;;;;35.22;14.45;;;8.50;99.90;;;;;;5010492;28;20034;-76
2022/11/30 03:01:08;;;;;;;32.00;14.25;;;8.50;99.90;;;;;;5010790;28;20068;-75
2022/11/30 03:03:34;;;;;;;39.65;15.27;;;8.50;99.90;;;;;;5010725;28;20142;-75
2022/11/30 03:06:00;;;;;;;32.42;14.90;;;8.50;99.90;;;;;;5009631;28;20475;-75
2022/11/30 03:08:26;;;;;;;29.67;13.40;;;8.40;99.90;;;;;;5010506;28;20045;-74
2022/11/30 03:10:51;;;;;;;34.10;14.23;;;8.50;99.90;;;;;;5012238;28;20054;-75
2022/11/30 03:13:17;;;;;;;37.17;15.02;;;8.40;99.90;;;;;;5014593;28;20376;-75
2022/11/30 03:15:42;;;;;;;38.92;15.85;;;8.40;99.90;;;;;;5014939;28;20061;-74
2022/11/30 03:18:09;;;;;;;38.10;15.10;;;8.40;99.90;;;;;;5013358;28;20387;-75
2022/11/30 03:20:39;;;;;;;38.78;14.82;;;8.40;99.90;;;;;;5013444;28;20053;-75
2022/11/30 03:23:04;;;;;;;34.50;14.05;;;8.50;99.90;;;;;;5014391;28;20033;-75
2022/11/30 03:25:30;;;;;;;30.77;14.63;;;8.50;99.90;;;;;;5014311;28;20514;-75
2022/11/30 03:27:55;;;;;;;35.55;14.25;;;8.40;99.90;;;;;;5014656;28;20026;-75
2022/11/30 03:30:21;;;;;;;33.47;14.48;;;8.40;99.90;;;;;;5013254;28;20491;-75
2022/11/30 03:32:47;;;;;;;32.33;14.65;;;8.40;99.90;;;;;;5014127;28;20471;-75
2022/11/30 03:35:12;;;;;;;34.05;14.10;;;8.40;99.90;;;;;;5014161;28;20042;-76
2022/11/30 03:37:38;;;;;;;29.67;14.13;;;8.40;99.90;;;;;;5014301;28;20068;-75
2022/11/30 03:40:04;;;;;;;30.77;14.60;;;8.40;99.90;;;;;;5014798;28;20033;-76
2022/11/30 03:42:31;;;;;;;31.50;14.10;;;8.50;99.90;;;;;;5014383;28;20476;-75
2022/11/30 03:44:56;;;;;;;32.13;13.48;;;8.50;99.90;;;;;;5014052;28;20030;-77
2022/11/30 03:47:22;;;;;;;31.90;14.20;;;8.60;99.90;;;;;;5013858;28;20060;-75
2022/11/30 03:49:48;;;;;;;31.17;14.25;;;8.50;99.90;;;;;;5012869;28;20099;-76
2022/11/30 03:52:13;;;;;;;28.70;13.27;;;8.50;99.90;;;;;;5013884;28;20018;-75
2022/11/30 03:54:39;;;;;;;29.65;14.15;;;8.50;99.90;;;;;;5013150;28;20033;-76
2022/11/30 03:57:05;;;;;;;30.75;13.38;;;8.50;99.90;;;;;;5013765;28;20468;-75
2022/11/30 03:59:30;;;;;;;30.80;12.98;;;8.40;99.90;;;;;;5013667;28;20034;-76
2022/11/30 04:01:56;;;;;;;29.35;13.95;;;8.40;99.90;;;;;;5013697;28;20030;-74
2022/11/30 04:04:21;;;;;;;32.90;14.07;;;8.30;99.90;;;;;;5013515;28;20041;-74
2022/11/30 04:06:47;;;;;;;33.33;15.05;;;8.30;99.90;;;;;;5013914;28;20049;-74
2022/11/30 04:09:13;;;;;;;29.60;14.40;;;8.40;99.90;;;;;;5012293;28;20068;-76
2022/11/30 04:11:38;;;;;;;32.67;14.82;;;8.40;99.90;;;;;;5013197;28;20133;-75
2022/11/30 04:14:04;;;;;;;38.38;16.20;;;8.40;99.90;;;;;;5013260;28;20030;-75
2022/11/30 04:16:29;;;;;;;34.60;15.05;;;8.40;99.90;;;;;;5013338;28;20170;-75
2022/11/30 04:18:55;;;;;;;32.53;14.98;;;8.40;99.90;;;;;;5013546;28;20053;-75
2022/11/30 04:21:21;;;;;;;39.42;16.23;;;8.40;99.90;;;;;;5013116;28;20041;-76
2022/11/30 04:23:46;;;;;;;35.03;15.48;;;8.50;99.90;;;;;;5013279;28;20038;-76
2022/11/30 04:26:14;;;;;;;40.60;15.57;;;8.40;99.90;;;;;;5013097;28;20095;-76
2022/11/30 04:28:40;;;;;;;37.08;15.80;;;8.50;99.90;;;;;;5013297;28;20030;-75
2022/11/30 04:31:06;;;;;;;36.53;15.65;;;8.40;99.90;;;;;;5013474;28;20022;-76
2022/11/30 04:33:32;;;;;;;37.17;15.35;;;8.40;99.90;;;;;;5013076;28;20029;-76
2022/11/30 04:36:00;;;;;;;40.10;15.52;;;8.40;99.90;;;;;;5011929;28;20049;-75
2022/11/30 04:38:26;;;;;;;42.35;16.23;;;8.40;99.90;;;;;;5013041;28;20044;-76
2022/11/30 04:40:53;;;;;;;41.13;16.35;;;8.50;99.90;;;;;;5011874;28;20129;-77
2022/11/30 04:43:19;;;;;;;38.60;16.17;;;8.40;99.90;;;;;;5012874;28;20026;-75
2022/11/30 04:45:45;;;;;;;38.28;15.48;;;8.40;99.90;;;;;;5013339;28;20403;-75
2022/11/30 04:48:12;;;;;;;34.88;15.00;;;8.40;99.90;;;;;;5012944;28;20034;-75
2022/11/30 04:50:38;;;;;;;42.17;17.63;;;8.40;99.90;;;;;;5011861;28;20064;-76
2022/11/30 04:53:04;;;;;;;40.00;15.30;;;8.40;99.90;;;;;;5012840;28;20151;-75
2022/11/30 04:55:30;;;;;;;43.90;17.40;;;8.40;99.90;;;;;;5012592;28;20080;-76
2022/11/30 04:57:56;;;;;;;43.25;17.42;;;8.40;99.90;;;;;;5013260;28;20042;-76
2022/11/30 05:00:22;;;;;;;40.90;16.75;;;8.50;99.90;;;;;;5012675;28;20037;-76
2022/11/30 05:02:48;;;;;;;45.72;17.65;;;8.50;99.90;;;;;;5011483;28;20121;-76
2022/11/30 05:05:14;;;;;;;47.70;18.33;;;8.50;99.90;;;;;;5011399;28;20117;-74
2022/11/30 05:07:39;;;;;;;46.13;17.73;;;8.40;99.90;;;;;;5012273;28;20108;-75
2022/11/30 05:10:06;;;;;;;44.10;18.02;;;8.50;99.90;;;;;;5012657;28;20025;-77
2022/11/30 05:12:32;;;;;;;46.70;19.37;;;8.40;99.90;;;;;;5012150;28;20104;-75
2022/11/30 05:14:58;;;;;;;43.20;18.30;;;8.50;99.90;;;;;;5012254;28;20038;-75
2022/11/30 05:17:24;;;;;;;42.83;17.38;;;8.50;99.90;;;;;;5012237;28;20038;-75
2022/11/30 05:19:49;;;;;;;43.53;17.17;;;8.40;99.90;;;;;;5011930;28;20030;-76
2022/11/30 05:22:15;;;;;;;38.75;17.23;;;8.50;99.90;;;;;;5011997;28;20022;-75
2022/11/30 05:24:40;;;;;;;47.67;17.92;;;8.50;99.90;;;;;;5011686;28;20029;-75
2022/11/30 05:27:06;;;;;;;44.25;17.52;;;8.40;99.90;;;;;;5012348;28;20092;-75
2022/11/30 05:29:34;;;;;;;45.20;18.80;;;8.40;99.90;;;;;;5011949;28;20042;-76
2022/11/30 05:32:00;;;;;;;44.15;17.75;;;8.40;99.90;;;;;;5011937;28;20053;-75
2022/11/30 05:34:26;;;;;;;46.53;18.27;;;8.40;99.90;;;;;;5010079;28;20026;-75
2022/11/30 05:36:51;;;;;;;48.00;19.48;;;8.40;99.90;;;;;;5012113;28;20094;-75
2022/11/30 05:39:17;;;;;;;47.70;17.75;;;8.50;99.90;;;;;;5010607;28;20034;-75
2022/11/30 05:41:43;;;;;;;48.55;19.00;;;8.50;99.90;;;;;;5010477;28;20437;-75
2022/11/30 05:44:08;;;;;;;50.35;19.05;;;8.40;99.90;;;;;;5011808;28;20125;-75
2022/11/30 05:46:35;;;;;;;46.92;18.40;;;8.40;99.90;;;;;;5011702;28;20049;-75
2022/11/30 05:49:01;;;;;;;47.55;18.95;;;8.40;99.90;;;;;;5012010;28;20466;-75
2022/11/30 05:51:26;;;;;;;52.53;19.23;;;8.40;99.90;;;;;;5011706;28;20034;-76
2022/11/30 05:53:52;;;;;;;49.08;20.60;;;8.40;99.90;;;;;;5010929;28;20129;-75
2022/11/30 05:56:20;;;;;;;46.28;19.38;;;8.40;99.90;;;;;;5010467;28;20038;-75
2022/11/30 05:58:46;;;;;;;48.30;18.77;;;8.40;99.90;;;;;;5011781;28;20516;-75
2022/11/30 06:01:23;;;;;;;42.45;17.85;;;8.40;99.90;;;;;;5011929;28;20045;-76
2022/11/30 06:03:49;;;;;;;45.10;17.58;;;8.40;99.90;;;;;;5010373;28;20262;-75
2022/11/30 06:06:15;;;;;;;46.40;18.48;;;8.50;99.90;;;;;;5010452;28;20038;-76
2022/11/30 06:08:41;;;;;;;44.83;18.90;;;8.40;99.90;;;;;;5010090;28;20446;-75
2022/11/30 06:11:06;;;;;;;45.67;18.45;;;8.40;99.90;;;;;;5011349;28;20464;-78
2022/11/30 06:13:32;;;;;;;45.42;17.13;;;8.30;99.90;;;;;;5010936;28;20092;-77
2022/11/30 06:15:59;;;;;;;43.70;16.95;;;8.40;99.90;;;;;;5012167;28;20026;-77
2022/11/30 06:18:25;;;;;;;49.45;19.08;;;8.40;99.90;;;;;;5010718;28;20038;-75
2022/11/30 06:20:50;;;;;;;44.95;19.35;;;8.30;99.90;;;;;;5011133;28;20045;-78
2022/11/30 06:23:16;;;;;;;50.42;19.75;;;8.30;99.90;;;;;;5012336;28;20033;-77
2022/11/30 06:25:42;;;;;;;49.35;19.63;;;8.40;99.90;;;;;;5012147;28;20045;-78
2022/11/30 06:28:10;;;;;;;47.00;17.95;;;8.40;99.90;;;;;;5013038;28;20029;-79
2022/11/30 06:30:36;;;;;;;45.40;18.23;;;8.50;99.90;;;;;;5012076;28;20034;-76
2022/11/30 06:33:02;;;;;;;49.38;20.02;;;8.40;99.90;;;;;;5010581;28;20411;-79
2022/11/30 06:35:28;;;;;;;51.47;19.70;;;8.40;99.90;;;;;;5007700;28;20039;-78
2022/11/30 06:37:54;;;;;;;45.85;19.38;;;8.50;99.90;;;;;;5007145;28;20045;-77
2022/11/30 06:40:19;;;;;;;46.50;19.02;;;8.40;99.90;;;;;;4991998;28;20054;-77
2022/11/30 06:42:45;;;;;;;52.85;19.83;;;8.40;99.90;;;;;;5011650;28;20037;-77
2022/11/30 06:45:11;;;;;;;46.65;18.55;;;8.40;99.90;;;;;;5006421;28;20030;-79
2022/11/30 06:47:37;;;;;;;49.33;19.77;;;8.40;99.90;;;;;;5004064;28;20172;-78
2022/11/30 06:50:03;;;;;;;49.92;20.00;;;8.40;99.90;;;;;;5007118;28;20113;-77
2022/11/30 06:52:30;;;;;;;50.13;20.67;;;8.40;99.90;;;;;;4993490;28;20364;-78
2022/11/30 06:54:56;;;;;;;50.45;20.90;;;8.40;99.90;;;;;;5011146;28;20069;-77
2022/11/30 06:57:30;;;;;;;52.40;20.35;;;8.40;99.90;;;;;;5010818;28;20034;-78
2022/11/30 06:59:56;;;;;;;54.45;21.40;;;8.40;99.90;;;;;;5011407;28;20108;-77
2022/11/30 07:02:22;;;;;;;49.75;20.27;;;8.40;99.90;;;;;;5010038;28;20093;-76
2022/11/30 07:04:48;;;;;;;52.40;20.80;;;8.40;99.90;;;;;;5010831;28;20041;-77
2022/11/30 07:07:14;;;;;;;58.35;22.75;;;8.40;99.90;;;;;;5010521;28;20022;-78
2022/11/30 07:09:40;;;;;;;58.72;22.13;;;8.50;99.90;;;;;;5010953;28;20076;-78
2022/11/30 07:12:06;;;;;;;55.97;22.10;;;8.40;99.90;;;;;;5010683;28;20058;-77
2022/11/30 07:14:32;;;;;;;58.42;21.73;;;8.50;99.90;;;;;;5009566;28;20030;-77
2022/11/30 07:16:58;;;;;;;55.50;21.25;;;8.40;99.90;;;;;;5010738;28;20018;-77
2022/11/30 07:19:23;;;;;;;51.55;20.83;;;8.50;99.90;;;;;;5010217;28;20026;-76
2022/11/30 07:21:49;;;;;;;54.67;21.40;;;8.50;99.90;;;;;;5010958;28;20363;-76
2022/11/30 07:27:01;;;;;;;60.00;21.55;;;8.50;99.90;;;;;;5010571;28;20045;-77
2022/11/30 07:29:27;;;;;;;55.90;22.55;;;8.50;99.90;;;;;;5010662;28;20038;-78
2022/11/30 07:31:53;;;;;;;61.47;24.25;;;8.50;99.90;;;;;;5009280;28;20053;-77
2022/11/30 07:34:19;;;;;;;53.28;22.10;;;8.40;99.90;;;;;;5010141;28;20037;-78
2022/11/30 07:36:45;;;;;;;66.43;22.55;;;8.50;99.90;;;;;;5011056;28;20028;-77
2022/11/30 07:39:12;;;;;;;56.45;23.35;;;8.40;99.90;;;;;;5010591;28;20076;-77
2022/11/30 07:41:38;;;;;;;61.53;22.55;;;8.40;99.90;;;;;;5009168;28;20037;-77
2022/11/30 07:44:05;;;;;;;52.55;21.75;;;8.40;99.90;;;;;;5009324;28;20373;-78
2022/11/30 07:46:34;;;;;;;58.92;22.05;;;8.40;99.90;;;;;;5009617;28;20124;-79
2022/11/30 07:49:02;;;;;;;55.85;21.33;;;8.40;99.90;;;;;;5011810;28;20026;-76
2022/11/30 07:51:27;;;;;;;52.85;21.73;;;8.40;99.90;;;;;;5010269;28;20108;-76
2022/11/30 07:53:57;;;;;;;51.53;20.80;;;8.40;99.90;;;;;;5010352;28;20463;-77
2022/11/30 07:56:24;;;;;;;53.83;21.73;;;8.50;99.90;;;;;;5011518;28;20042;-77
2022/11/30 07:58:52;;;;;;;57.65;22.70;;;8.50;99.90;;;;;;5013743;28;20369;-77
2022/11/30 08:01:20;;;;;;;;;;;8.30;99.90;;;;;;5013424;28;20415;-76
2022/11/30 08:03:46;;;;;;;55.15;20.92;;;8.30;99.90;;;;;;5014229;28;20311;-76
2022/11/30 08:06:14;;;;;;;57.03;23.05;;;8.30;99.90;;;;;;5014123;28;20033;-77
2022/11/30 08:08:42;;;;;;;50.25;21.35;;;8.40;99.90;;;;;;5013590;28;20041;-76
2022/11/30 08:11:11;;;;;;;60.95;22.83;;;8.40;99.90;;;;;;5013602;28;20108;-77
2022/11/30 08:13:36;;;;;;;58.75;23.15;;;8.40;99.90;;;;;;5013481;28;20030;-76
2022/11/30 08:16:11;;;;;;;55.28;21.67;;;8.50;99.90;;;;;;5013630;28;20088;-76
2022/11/30 08:18:38;;;;;;;61.67;23.92;;;8.50;99.90;;;;;;5013263;28;20368;-78
2022/11/30 08:21:06;;;;;;;58.40;23.52;;;8.50;99.90;;;;;;5012711;28;20041;-77
2022/11/30 08:23:34;;;;;;;61.75;21.65;;;8.50;99.90;;;;;;5012450;28;20061;-76
2022/11/30 08:26:09;;;;;;;49.38;20.38;;;8.50;99.90;;;;;;5012383;28;20067;-77
2022/11/30 08:28:35;;;;;;;58.97;23.15;;;8.50;99.90;;;;;;5013588;28;20068;-77
2022/11/30 08:31:09;;;;;;;58.55;22.35;;;8.50;99.90;;;;;;5013773;28;20108;-77
2022/11/30 08:33:36;;;;;;;56.53;23.33;;;8.50;99.90;;;;;;5012127;28;20026;-78
2022/11/30 08:36:06;;;;;;;63.05;22.88;;;8.50;99.90;;;;;;5012987;28;20091;-77
2022/11/30 08:38:33;;;;;;;59.40;23.73;;;8.50;99.90;;;;;;5013319;28;20122;-78
2022/11/30 08:40:59;;;;;;;61.13;23.40;;;8.50;99.90;;;;;;5011998;28;20033;-77
2022/11/30 08:43:24;;;;;;;61.83;24.00;;;8.50;99.90;;;;;;5013472;28;20423;-77
2022/11/30 08:45:50;;;;;;;64.60;24.10;;;8.50;99.90;;;;;;5013427;28;20069;-78
2022/11/30 08:48:16;;;;;;;64.03;24.00;;;8.50;99.90;;;;;;5012987;28;20057;-77
2022/11/30 08:50:41;;;;;;;58.35;22.92;;;8.50;99.90;;;;;;5012749;28;20029;-78
2022/11/30 08:53:07;;;;;;;59.50;23.50;;;8.60;99.90;;;;;;5012674;28;20038;-77
2022/11/30 08:55:33;;;;;;;66.75;26.45;;;8.60;99.90;;;;;;5012556;28;20038;-77
2022/11/30 08:57:59;;;;;;;63.90;25.13;;;8.60;99.90;;;;;;5013382;28;20029;-75
2022/11/30 09:00:24;;;;;;;65.35;23.83;;;8.70;99.90;;;;;;5012831;28;20053;-77
2022/11/30 09:02:50;;;;;;;61.92;24.80;;;8.70;99.90;;;;;;5012564;28;20030;-76
2022/11/30 09:05:16;;;;;;;65.93;24.08;;;8.70;99.90;;;;;;5011367;28;20045;-78
2022/11/30 09:07:41;;;;;;;68.13;25.45;;;8.70;99.90;;;;;;5011338;28;20045;-78
2022/11/30 09:10:07;;;;;;;63.97;24.60;;;8.70;99.90;;;;;;5013323;28;20183;-77
2022/11/30 09:12:36;;;;;;;67.60;26.02;;;8.70;99.90;;;;;;5010916;28;20045;-77
2022/11/30 09:15:01;;;;;;;;;;;8.70;99.90;;;;;;5013028;28;20118;-76
2022/11/30 09:17:27;;;;;;;70.72;25.88;;;8.70;99.90;;;;;;5012389;28;20292;-77
2022/11/30 09:19:53;;;;;;;68.47;25.08;;;8.70;99.90;;;;;;5012191;28;20029;-77
2022/11/30 09:22:19;;;;;;;63.90;24.25;;;8.70;99.90;;;;;;5012062;28;20026;-77
2022/11/30 09:24:45;;;;;;;68.10;25.75;;;8.80;99.90;;;;;;5012930;28;20437;-77
2022/11/30 09:27:10;;;;;;;71.10;26.55;;;8.80;99.90;;;;;;5012227;28;20053;-76
2022/11/30 09:29:36;;;;;;;64.65;25.80;;;8.90;99.90;;;;;;5012016;28;20041;-77
2022/11/30 09:32:02;;;;;;;69.60;25.25;;;8.80;99.90;;;;;;5012094;28;20048;-77
2022/11/30 09:34:27;;;;;;;67.13;24.45;;;8.80;99.90;;;;;;5011885;28;20034;-76
2022/11/30 09:36:53;;;;;;;72.35;26.85;;;8.80;99.90;;;;;;5012154;28;20029;-78
2022/11/30 09:39:19;;;;;;;71.75;26.23;;;8.80;99.90;;;;;;5011722;28;20034;-77
2022/11/30 09:41:47;;;;;;;70.78;27.15;;;8.80;99.90;;;;;;5010874;28;20030;-78
2022/11/30 09:44:32;;;;;;;69.70;26.15;;;8.80;99.90;;;;;;5011864;28;20456;-77
2022/11/30 09:47:06;;;;;;;73.13;25.95;;;8.80;99.90;;;;;;5012194;28;20088;-77
2022/11/30 09:49:40;;;;;;;74.05;26.65;;;8.90;99.90;;;;;;5011759;28;20022;-75
2022/11/30 09:52:13;;;;;;;75.88;26.45;;;9.00;99.90;;;;;;5011302;28;20034;-77
2022/11/30 09:54:44;;;;;;;68.80;25.65;;;9.10;99.90;;;;;;5012078;28;20482;-77
2022/11/30 09:57:26;;;;;;;70.55;26.45;;;9.00;99.90;;;;;;5010497;28;20038;-77
2022/11/30 10:00:17;;;;;;;75.88;27.35;;;9.00;99.90;;;;;;5010324;28;20030;-77
2022/11/30 10:02:44;;;;;;;71.90;26.08;;;9.00;99.90;;;;;;5011696;28;20041;-77
2022/11/30 10:05:22;;;;;;;70.88;26.27;;;9.00;99.90;;;;;;5011329;28;20501;-77
2022/11/30 10:08:00;;;;;;;;;;;9.00;99.90;;;;;;5011741;28;20144;-77
2022/11/30 10:10:42;;;;;;;73.85;26.45;;;9.10;99.90;;;;;;5011109;28;20324;-77
2022/11/30 10:13:30;;;;;;;67.35;24.70;;;9.20;99.90;;;;;;5011819;28;20046;-76
2022/11/30 10:16:27;;;;;;;77.10;29.80;;;9.10;99.90;;;;;;5011185;28;20037;-76
2022/11/30 10:19:20;;;;;;;82.72;30.65;;;9.20;99.90;;;;;;5010988;28;20148;-76
2022/11/30 10:22:09;;;;;;;84.20;27.17;;;9.20;99.90;;;;;;5011161;28;20491;-76
2022/11/30 10:25:05;;;;;;;80.22;29.48;;;9.20;99.90;;;;;;5011290;28;20040;-77
2022/11/30 10:27:43;;;;;;;76.07;28.05;;;9.20;99.90;;;;;;5011359;28;20065;-75
2022/11/30 10:30:14;;;;;;;81.60;27.27;;;9.20;99.90;;;;;;5010964;28;20121;-77
2022/11/30 10:32:42;;;;;;;77.82;27.02;;;9.20;99.90;;;;;;5010833;28;20041;-77
2022/11/30 10:35:17;;;;;;;;;;;9.20;99.90;;;;;;5011334;28;20062;-78
2022/11/30 10:37:44;;;;;;;71.22;25.42;;;9.20;99.90;;;;;;5010988;28;19913;-77
2022/11/30 10:40:36;;;;;;;78.70;28.30;;;9.20;99.90;;;;;;5010066;28;20080;-77
2022/11/30 10:43:23;;;;;;;86.95;30.52;;;9.30;99.90;;;;;;5006633;28;20034;-77
2022/11/30 10:45:50;;;;;;;83.17;30.50;;;9.30;99.90;;;;;;5010873;28;20046;-76
2022/11/30 10:48:15;;;;;;;78.68;28.77;;;9.20;99.90;;;;;;5009854;28;20038;-77
2022/11/30 10:50:41;;;;;;;89.20;29.95;;;9.20;99.90;;;;;;5010599;28;20042;-75
2022/11/30 10:53:10;;;;;;;85.38;30.55;;;9.20;99.90;;;;;;5009594;28;20096;-77
2022/11/30 10:55:41;;;;;;;87.55;29.73;;;9.30;99.90;;;;;;5009488;28;20041;-76
2022/11/30 10:58:12;;;;;;;80.60;28.20;;;9.30;99.90;;;;;;5011344;28;20381;-76
2022/11/30 11:00:38;;;;;;;81.82;28.58;;;9.30;99.90;;;;;;5010820;28;20037;-76
2022/11/30 11:03:25;;;;;;;76.25;28.70;;;9.30;99.90;;;;;;5009352;28;20034;-78
2022/11/30 11:06:04;;;;;;;87.05;30.30;;;9.30;99.90;;;;;;5010374;28;20030;-77
2022/11/30 11:08:30;;;;;;;83.88;30.02;;;9.30;99.90;;;;;;5010536;28;20026;-77
2022/11/30 11:10:56;;;;;;;80.45;28.70;;;9.20;99.90;;;;;;5010123;28;20042;-77
2022/11/30 11:13:42;;;;;;;82.57;30.50;;;9.30;99.90;;;;;;5010313;28;20309;-75
2022/11/30 11:16:10;;;;;;;76.75;28.02;;;9.40;99.90;;;;;;5010818;28;20030;-76
2022/11/30 11:18:54;;;;;;;87.43;29.35;;;9.40;99.90;;;;;;5010569;28;20484;-77
2022/11/30 11:21:22;;;;;;;85.25;29.52;;;9.30;99.90;;;;;;5009158;28;20034;-77
2022/11/30 11:23:53;;;;;;;80.38;29.13;;;9.30;99.90;;;;;;5009391;28;20034;-77
2022/11/30 11:26:24;;;;;;;82.50;27.38;;;9.30;99.90;;;;;;5010163;28;20064;-76
2022/11/30 11:28:55;;;;;;;85.43;29.58;;;9.20;99.90;;;;;;5010306;28;20034;-77
2022/11/30 11:31:37;;;;;;;84.10;30.40;;;9.30;99.90;;;;;;5011293;28;20112;-77
2022/11/30 11:34:08;;;;;;;81.03;28.42;;;9.30;99.90;;;;;;5014316;28;20481;-76
2022/11/30 11:36:37;;;;;;;79.53;28.60;;;9.20;99.90;;;;;;5014045;28;20042;-76
2022/11/30 11:39:24;;;;;;;80.05;29.25;;;9.30;99.90;;;;;;5012672;28;20030;-75
2022/11/30 11:41:51;;;;;;;76.45;27.85;;;9.20;99.90;;;;;;5013835;28;20349;-77
2022/11/30 11:44:22;;;;;;;98.30;35.37;;;9.20;99.90;;;;;;5013809;28;20038;-76
2022/11/30 11:47:06;;;;;;;96.85;35.78;;;9.10;99.90;;;;;;5012437;28;20129;-77
2022/11/30 11:49:35;;;;;;;82.53;29.60;;;9.10;99.90;;;;;;5013926;28;20448;-77
2022/11/30 11:52:10;;;;;;;84.30;28.90;;;9.10;99.90;;;;;;5014408;28;20148;-77
2022/11/30 11:55:01;;;;;;;85.00;29.73;;;9.20;99.90;;;;;;5012741;28;20026;-77
2022/11/30 11:57:53;;;;;;;83.05;29.67;;;9.30;99.90;;;;;;5011286;28;20026;-77
2022/11/30 12:00:22;;;;;;;86.15;28.10;;;9.20;99.90;;;;;;5010638;28;20025;-77
2022/11/30 12:03:06;;;;;;;80.22;29.05;;;9.20;99.90;;;;;;5013880;28;20538;-77
2022/11/30 12:05:42;;;;;;;81.00;29.45;;;9.20;99.90;;;;;;5013553;28;20045;-77
2022/11/30 12:08:48;;;;;;;75.15;28.10;;;9.20;99.90;;;;;;5013538;28;20096;-77
2022/11/30 12:11:23;;;;;;;80.18;28.50;;;9.30;99.90;;;;;;5013688;28;20131;-76
2022/11/30 12:13:49;;;;;;;76.82;28.63;;;9.30;99.90;;;;;;5013435;28;20030;-77
2022/11/30 12:16:30;;;;;;;79.35;28.02;;;9.30;99.90;;;;;;5012297;28;20116;-77
2022/11/30 12:19:07;;;;;;;89.60;30.58;;;9.30;99.90;;;;;;5012713;28;20037;-77
2022/11/30 12:21:45;;;;;;;79.90;28.65;;;9.40;99.90;;;;;;5013398;28;20095;-77
2022/11/30 12:24:42;;;;;;;85.22;29.48;;;9.40;99.90;;;;;;5013612;28;20054;-76
2022/11/30 12:27:46;;;;;;;77.63;27.73;;;9.50;99.90;;;;;;5012307;28;20045;-77
2022/11/30 12:30:39;;;;;;;76.40;27.75;;;9.50;99.90;;;;;;5013019;28;20073;-75
2022/11/30 12:33:14;;;;;;;70.78;27.10;;;9.50;99.90;;;;;;5012062;28;20034;-75
2022/11/30 12:36:08;;;;;;;93.20;31.45;;;9.50;99.90;;;;;;5012820;28;20038;-76
2022/11/30 12:39:00;;;;;;;78.63;29.35;;;9.50;99.90;;;;;;5012929;28;20275;-75
2022/11/30 12:41:50;;;;;;;73.30;28.27;;;9.40;99.90;;;;;;5013249;28;20068;-76
2022/11/30 12:44:41;;;;;;;71.60;27.58;;;9.50;99.90;;;;;;5011738;28;20037;-76
2022/11/30 12:47:17;;;;;;;71.93;26.80;;;9.40;99.90;;;;;;5012903;28;20418;-75
2022/11/30 12:50:10;;;;;;;75.43;28.27;;;9.40;99.90;;;;;;5011646;28;20030;-76
2022/11/30 12:52:41;;;;;;;71.43;27.33;;;9.30;99.90;;;;;;5011825;28;20378;-77
2022/11/30 12:55:40;;;;;;;78.05;29.02;;;9.30;99.90;;;;;;5012129;28;20030;-77